Time;durP1;ratioP1;P1;durP2;ratioP2;P2;SDS_P1;SDS_P2;PMS_P1;PMS_P2;Temp;Humidity;BMP_temperature;BMP_pressure;BME280_temperature;BME280_humidity;BME280_pressure;Samples;Min_cycle;Max_cycle;Signal;HPM_P1;HPM_P2
2021/05/24 00:03:01;;;;;;;;;;;11.50;99.90;;;;;;10578788;28;19928;-62
2021/05/24 00:08:04;;;;;;;;;;;11.60;99.90;;;;;;10578967;28;19959;-63
2021/05/24 00:13:06;;;;;;;;;;;11.50;99.90;;;;;;10579014;28;20015;-63
2021/05/24 00:18:07;;;;;;;;;;;11.50;99.90;;;;;;10581343;28;20455;-61
2021/05/24 00:23:09;;;;;;;;;;;11.40;99.90;;;;;;10581162;28;19932;-62
2021/05/24 00:28:13;;;;;;;;;;;11.40;99.90;;;;;;10580987;28;19927;-63
2021/05/24 00:33:14;;;;;;;;;;;11.30;99.90;;;;;;10580726;28;19928;-61
2021/05/24 00:38:16;;;;;;;;;;;11.00;99.90;;;;;;10580602;28;19924;-62
2021/05/24 00:43:17;;;;;;;;;;;10.90;99.90;;;;;;10579728;28;20007;-62
2021/05/24 00:48:18;;;;;;;;;;;10.90;99.90;;;;;;10580350;28;19928;-63
2021/05/24 00:53:20;;;;;;;;;;;10.90;99.90;;;;;;10579399;28;19923;-62
2021/05/24 00:58:22;;;;;;;;;;;11.00;99.90;;;;;;10577731;28;19969;-62
2021/05/24 01:03:23;;;;;;;;;;;11.00;99.90;;;;;;10578726;28;19927;-63
2021/05/24 01:08:25;;;;;;;;;;;11.10;99.90;;;;;;10580288;28;20287;-62
2021/05/24 01:13:26;;;;;;;;;;;11.10;99.90;;;;;;10580117;28;20423;-61
2021/05/24 01:18:27;;;;;;;;;;;11.10;99.90;;;;;;10580161;28;20581;-62
2021/05/24 01:23:29;;;;;;;;;;;11.10;99.90;;;;;;10576226;28;20333;-64
2021/05/24 01:28:30;;;;;;;;;;;11.20;99.90;;;;;;10576176;28;19924;-62
2021/05/24 01:33:33;;;;;;;;;;;11.20;99.90;;;;;;10577360;28;19972;-62
2021/05/24 01:38:37;;;;;;;;;;;11.10;99.90;;;;;;10575757;28;19928;-62
2021/05/24 01:43:38;;;;;;;;;;;11.10;99.90;;;;;;10575474;28;19936;-62
2021/05/24 01:48:40;;;;;;;;;;;11.00;99.90;;;;;;10577466;28;19927;-61
2021/05/24 01:53:42;;;;;;;;;;;10.90;99.90;;;;;;10579913;28;20364;-62
2021/05/24 01:58:45;;;;;;;;;;;10.90;99.90;;;;;;10579989;28;19934;-63
2021/05/24 02:03:47;;;;;;;;;;;10.80;99.90;;;;;;10579411;28;20372;-61
2021/05/24 02:08:48;;;;;;;;;;;10.80;99.90;;;;;;10579916;28;19970;-62
2021/05/24 02:13:50;;;;;;;;;;;10.70;99.90;;;;;;10579107;28;20302;-61
2021/05/24 02:18:51;;;;;;;;;;;13.90;99.90;;;;;;10579342;28;19928;-62
2021/05/24 02:23:53;;;;;;;;;;;9.40;99.90;;;;;;10579327;28;20007;-61
2021/05/24 02:28:54;;;;;;;;;;;10.40;99.90;;;;;;10579216;28;19924;-62
2021/05/24 02:33:55;;;;;;;;;;;7.90;99.90;;;;;;10579047;28;19966;-62
2021/05/24 02:38:57;;;;;;;;;;;10.20;99.90;;;;;;10578272;28;19924;-62
2021/05/24 02:43:58;;;;;;;;;;;10.20;99.90;;;;;;10578067;28;20015;-62
2021/05/24 02:49:00;;;;;;;;;;;10.10;99.90;;;;;;10578465;28;19993;-62
2021/05/24 02:54:03;;;;;;;;;;;10.10;99.90;;;;;;10578370;28;19928;-62
2021/05/24 02:59:04;;;;;;;;;;;10.10;99.90;;;;;;10578177;28;20378;-62
2021/05/24 03:04:07;;;;;;;;;;;10.10;99.90;;;;;;10577905;28;19924;-61
2021/05/24 03:09:09;;;;;;;;;;;10.10;99.90;;;;;;10577206;28;19935;-61
2021/05/24 03:14:11;;;;;;;;;;;10.10;99.90;;;;;;10576766;28;19924;-62
2021/05/24 03:19:12;;;;;;;;;;;10.00;99.90;;;;;;10577581;28;20345;-62
2021/05/24 03:24:14;;;;;;;;;;;10.00;99.90;;;;;;10577513;28;20022;-63
2021/05/24 03:29:15;;;;;;;;;;;9.90;99.90;;;;;;10577439;28;20269;-62
2021/05/24 03:34:16;;;;;;;;;;;9.80;99.90;;;;;;10577068;28;19923;-63
2021/05/24 03:39:19;;;;;;;;;;;10.10;99.90;;;;;;10576794;28;19927;-62
2021/05/24 03:44:20;;;;;;;;;;;9.80;99.90;;;;;;10575848;28;20372;-62
2021/05/24 03:49:21;;;;;;;;;;;9.80;99.90;;;;;;10575176;28;20459;-62
2021/05/24 03:54:23;;;;;;;;;;;9.80;99.90;;;;;;10573776;28;19932;-62
2021/05/24 03:59:24;;;;;;;;;;;9.80;99.90;;;;;;10573393;28;19924;-62
2021/05/24 04:04:25;;;;;;;;;;;9.80;99.90;;;;;;10572684;28;20261;-62
2021/05/24 04:09:27;;;;;;;;;;;9.80;99.90;;;;;;10575807;28;20052;-61
2021/05/24 04:14:29;;;;;;;;;;;9.70;99.90;;;;;;10576546;28;19980;-62
2021/05/24 04:19:30;;;;;;;;;;;9.70;99.90;;;;;;10576419;28;19930;-61
2021/05/24 04:24:32;;;;;;;;;;;9.70;99.90;;;;;;10577833;28;19924;-62
2021/05/24 04:29:33;;;;;;;;;;;9.70;99.90;;;;;;10583891;28;20279;-62
2021/05/24 04:34:34;;;;;;;;;;;9.70;99.90;;;;;;10583362;28;19930;-63
2021/05/24 04:39:36;;;;;;;;;;;9.70;99.90;;;;;;10583661;28;19923;-63
2021/05/24 04:44:37;;;;;;;;;;;9.70;99.90;;;;;;10582929;28;19934;-64
2021/05/24 04:49:38;;;;;;;;;;;9.80;99.90;;;;;;10583354;28;19928;-64
2021/05/24 04:54:40;;;;;;;;;;;9.70;99.90;;;;;;10582942;28;20444;-62
2021/05/24 04:59:41;;;;;;;;;;;9.70;99.90;;;;;;10582893;28;20018;-63
2021/05/24 05:04:42;;;;;;;;;;;9.70;99.90;;;;;;10582638;28;19928;-62
2021/05/24 05:09:44;;;;;;;;;;;9.70;99.90;;;;;;10582515;28;20371;-63
2021/05/24 05:14:46;;;;;;;;;;;9.70;99.90;;;;;;10581618;28;19934;-63
2021/05/24 05:19:47;;;;;;;;;;;9.70;99.90;;;;;;10580265;28;19924;-63
2021/05/24 05:24:49;;;;;;;;;;;9.70;99.90;;;;;;10580879;28;20022;-62
2021/05/24 05:29:50;;;;;;;;;;;9.70;99.90;;;;;;10580496;28;20423;-63
2021/05/24 05:34:51;;;;;;;;;;;9.80;99.90;;;;;;10579663;28;19992;-62
2021/05/24 05:39:55;;;;;;;;;;;9.90;99.90;;;;;;10579370;28;19928;-62
2021/05/24 05:44:56;;;;;;;;;;;9.90;99.90;;;;;;10579341;28;19923;-64
2021/05/24 05:49:57;;;;;;;;;;;9.90;99.90;;;;;;10579191;28;20001;-62
2021/05/24 05:54:59;;;;;;;;;;;9.90;99.90;;;;;;10579501;28;19977;-62
2021/05/24 06:00:01;;;;;;;;;;;10.00;99.90;;;;;;10578814;28;20003;-63
2021/05/24 06:05:02;;;;;;;;;;;10.10;99.90;;;;;;10576997;28;20292;-63
2021/05/24 06:10:04;;;;;;;;;;;10.10;99.90;;;;;;10577213;28;19948;-63
2021/05/24 06:15:06;;;;;;;;;;;10.10;99.90;;;;;;10576937;28;19924;-62
2021/05/24 06:20:08;;;;;;;;;;;10.10;99.90;;;;;;10576602;28;20364;-62
2021/05/24 06:25:11;;;;;;;;;;;10.10;99.90;;;;;;10573341;28;19938;-64
2021/05/24 06:30:13;;;;;;;;;;;10.10;99.90;;;;;;10574391;28;19928;-62
2021/05/24 06:35:14;;;;;;;;;;;10.10;99.90;;;;;;10573316;28;19924;-62
2021/05/24 06:40:16;;;;;;;;;;;8.70;99.90;;;;;;10575940;28;19930;-63
2021/05/24 06:45:19;;;;;;;;;;;10.00;99.90;;;;;;10575004;28;20290;-63
2021/05/24 06:50:20;;;;;;;;;;;10.10;99.90;;;;;;10575379;28;20584;-62
2021/05/24 06:55:22;;;;;;;;;;;10.10;99.90;;;;;;10575146;28;19935;-61
2021/05/24 07:00:23;;;;;;;;;;;10.10;99.90;;;;;;10575333;28;19924;-63
2021/05/24 07:05:25;;;;;;;;;;;10.20;99.90;;;;;;10574915;28;19924;-62
2021/05/24 07:10:27;;;;;;;;;;;10.30;99.90;;;;;;10576087;28;19930;-62
2021/05/24 07:15:28;;;;;;;;;;;10.50;99.90;;;;;;10575741;28;19927;-62
2021/05/24 07:20:29;;;;;;;;;;;10.50;99.90;;;;;;10575621;28;19967;-62
2021/05/24 07:25:31;;;;;;;;;;;10.50;99.90;;;;;;10574966;28;19930;-62
2021/05/24 07:30:32;;;;;;;;;;;10.50;99.90;;;;;;10575483;28;19927;-62
2021/05/24 07:35:33;;;;;;;;;;;10.50;99.90;;;;;;10574908;28;19924;-64
2021/05/24 07:40:35;;;;;;;;;;;10.60;99.90;;;;;;10574927;28;19928;-63
2021/05/24 07:45:36;;;;;;;;;;;10.70;99.90;;;;;;10575308;28;19923;-62
2021/05/24 07:50:37;;;;;;;;;;;10.80;99.90;;;;;;10575193;28;20372;-64
2021/05/24 07:55:41;;;;;;;;;;;10.80;99.90;;;;;;10574468;28;19927;-63
2021/05/24 08:00:42;;;;;;;;;;;10.90;99.90;;;;;;10575525;28;19923;-62
2021/05/24 08:05:43;;;;;;;;;;;10.90;99.90;;;;;;10578302;28;20330;-62
2021/05/24 08:10:45;;;;;;;;;;;10.90;99.90;;;;;;10582913;28;19967;-63
2021/05/24 08:15:46;;;;;;;;;;;10.90;99.90;;;;;;10582020;28;19924;-64
2021/05/24 08:20:48;;;;;;;;;;;10.90;99.90;;;;;;10581994;28;19928;-63
2021/05/24 08:25:50;;;;;;;;;;;11.00;99.90;;;;;;10582639;28;19928;-63
2021/05/24 08:30:51;;;;;;;;;;;11.20;99.90;;;;;;10581948;28;19931;-63
2021/05/24 08:35:52;;;;;;;;;;;11.30;99.90;;;;;;10581750;28;19935;-62
2021/05/24 08:40:55;;;;;;;;;;;11.40;99.90;;;;;;10581070;28;20021;-65
2021/05/24 08:45:58;;;;;;;;;;;11.60;99.90;;;;;;10581352;28;20356;-62
2021/05/24 08:50:59;;;;;;;;;;;11.80;99.90;;;;;;10581180;28;19927;-61
2021/05/24 08:56:01;;;;;;;;;;;12.10;99.90;;;;;;10581069;28;19931;-63
2021/05/24 09:01:03;;;;;;;;;;;12.30;99.90;;;;;;10580491;28;20459;-61
2021/05/24 09:06:07;;;;;;;;;;;13.10;99.90;;;;;;10580545;28;19949;-63
2021/05/24 09:11:23;;;;;;;;;;;13.10;99.90;;;;;;10580384;28;19930;-63
2021/05/24 09:16:29;;;;;;;;;;;13.40;99.90;;;;;;10580353;28;19951;-63
2021/05/24 09:21:30;;;;;;;;;;;13.50;99.90;;;;;;10579886;28;19989;-59
2021/05/24 09:26:33;;;;;;;;;;;13.20;99.90;;;;;;10579669;28;19928;-62
2021/05/24 09:31:36;;;;;;;;;;;12.90;99.90;;;;;;10579610;28;20478;-62
2021/05/24 09:36:37;;;;;;;;;;;12.60;99.90;;;;;;10579226;28;19927;-63
2021/05/24 09:41:42;;;;;;;;;;;10.20;99.90;;;;;;10578124;28;19928;-61
2021/05/24 09:46:44;;;;;;;;;;;12.60;99.90;;;;;;10578272;28;19952;-63
2021/05/24 09:51:45;;;;;;;;;;;12.70;99.90;;;;;;10577833;28;20368;-62
2021/05/24 09:56:47;;;;;;;;;;;12.70;99.90;;;;;;10577581;28;19967;-61
2021/05/24 10:01:52;;;;;;;;;;;12.60;99.90;;;;;;10577071;28;19966;-62
2021/05/24 10:06:54;;;;;;;;;;;12.80;99.90;;;;;;10577089;28;19924;-62
2021/05/24 10:11:55;;;;;;;;;;;12.90;99.90;;;;;;10577593;28;19939;-62
2021/05/24 10:17:01;;;;;;;;;;;13.30;99.90;;;;;;10576668;28;20357;-62
2021/05/24 10:22:03;;;;;;;;;;;13.40;99.90;;;;;;10576131;28;20018;-63
2021/05/24 10:27:05;;;;;;;;;;;13.60;99.90;;;;;;10576606;28;20090;-63
2021/05/24 10:32:08;;;;;;;;;;;13.80;99.90;;;;;;10575694;28;19930;-63
2021/05/24 10:37:11;;;;;;;;;;;14.00;99.90;;;;;;10575052;28;19932;-62
2021/05/24 10:42:14;;;;;;;;;;;14.70;99.90;;;;;;10575189;28;19931;-62
2021/05/24 10:47:20;;;;;;;;;;;15.20;99.90;;;;;;10575453;28;20390;-62
2021/05/24 10:52:21;;;;;;;;;;;15.10;99.90;;;;;;10576294;28;19963;-62
2021/05/24 10:57:22;;;;;;;;;;;14.90;99.90;;;;;;10576267;28;20649;-62
2021/05/24 11:02:31;;;;;;;;;;;14.80;99.90;;;;;;10575875;28;20023;-62
2021/05/24 11:07:34;;;;;;;;;;;14.50;99.90;;;;;;10575911;28;19934;-63
2021/05/24 11:12:35;;;;;;;;;;;14.10;99.90;;;;;;10575793;28;19935;-63
2021/05/24 11:17:54;;;;;;;;;;;13.50;99.90;;;;;;10575393;28;19924;-62
2021/05/24 11:23:09;;;;;;;;;;;12.80;99.90;;;;;;10575506;28;19928;-62
2021/05/24 11:28:11;;;;;;;;;;;11.90;99.90;;;;;;10575081;28;20252;-63
2021/05/24 11:33:30;;;;;;;;;;;11.40;99.90;;;;;;10575449;28;20035;-63
2021/05/24 11:38:33;;;;;;;;;;;11.50;99.90;;;;;;10584229;28;19981;-62
2021/05/24 11:43:34;;;;;;;;;;;12.10;99.90;;;;;;10582947;28;20012;-63
2021/05/24 11:48:37;;;;;;;;;;;12.60;99.90;;;;;;10584469;28;19930;-62
2021/05/24 11:53:39;;;;;;;;;;;13.10;99.90;;;;;;10583416;28;20138;-61
2021/05/24 11:58:59;;;;;;;;;;;13.30;99.90;;;;;;10582860;28;19932;-62
2021/05/24 12:04:04;;;;;;;;;;;13.10;99.90;;;;;;10583104;28;20364;-62
2021/05/24 12:09:06;;;;;;;;;;;13.10;99.90;;;;;;10583099;28;19924;-63
2021/05/24 12:14:09;;;;;;;;;;;13.40;99.90;;;;;;10582545;28;19934;-63
2021/05/24 12:19:10;;;;;;;;;;;13.70;99.90;;;;;;10582359;28;19938;-60
2021/05/24 12:24:12;;;;;;;;;;;14.10;99.90;;;;;;10582029;28;19950;-62
2021/05/24 12:29:18;;;;;;;;;;;14.40;99.90;;;;;;10582247;28;19924;-62
2021/05/24 12:34:21;;;;;;;;;;;14.50;99.90;;;;;;10580244;28;19934;-63
2021/05/24 12:39:24;;;;;;;;;;;14.00;99.90;;;;;;10579682;28;19934;-61
2021/05/24 12:44:26;;;;;;;;;;;13.70;99.90;;;;;;10580214;28;19924;-63
2021/05/24 12:49:33;;;;;;;;;;;13.30;99.90;;;;;;10581238;28;19934;-60
2021/05/24 12:54:42;;;;;;;;;;;12.90;99.90;;;;;;10579362;28;20011;-60
2021/05/24 12:59:44;;;;;;;;;;;12.40;99.90;;;;;;10579932;28;20383;-60
2021/05/24 13:04:45;;;;;;;;;;;12.30;99.90;;;;;;10579201;28;19924;-60
2021/05/24 13:10:02;;;;;;;;;;;12.40;99.90;;;;;;10579603;28;19928;-61
2021/05/24 13:15:05;;;;;;;;;;;13.20;99.90;;;;;;10580374;28;19927;-61
2021/05/24 13:20:25;;;;;;;;;;;14.60;99.90;;;;;;10579959;28;20377;-63
2021/05/24 13:25:48;;;;;;;;;;;15.60;99.90;;;;;;10579671;28;19935;-60
2021/05/24 13:30:56;;;;;;;;;;;16.40;99.90;;;;;;10579677;28;19953;-61
2021/05/24 13:35:58;;;;;;;;;;;14.00;99.90;;;;;;10579598;28;19981;-62
2021/05/24 13:40:59;;;;;;;;;;;16.90;99.90;;;;;;10578216;28;20361;-62
2021/05/24 13:46:01;;;;;;;;;;;17.20;99.90;;;;;;10577141;28;19932;-61
2021/05/24 13:51:02;;;;;;;;;;;17.80;99.90;;;;;;10576723;28;19928;-62
2021/05/24 13:56:04;;;;;;;;;;;18.20;99.90;;;;;;10576586;28;20420;-62
2021/05/24 14:01:05;;;;;;;;;;;18.00;99.90;;;;;;10576068;28;20382;-63
2021/05/24 14:06:07;;;;;;;;;;;17.40;99.90;;;;;;10576338;28;19928;-65
2021/05/24 14:11:08;;;;;;;;;;;17.30;98.90;;;;;;10576585;28;19997;-64
2021/05/24 14:16:13;;;;;;;;;;;17.20;97.30;;;;;;10577777;28;19930;-63
2021/05/24 14:21:14;;;;;;;;;;;17.00;96.20;;;;;;10577077;28;20314;-63
2021/05/24 14:26:15;;;;;;;;;;;16.80;94.40;;;;;;10577243;28;19930;-64
2021/05/24 14:31:17;;;;;;;;;;;16.50;93.30;;;;;;10576987;28;19923;-62
2021/05/24 14:36:19;;;;;;;;;;;16.60;94.30;;;;;;10576739;28;20019;-62
2021/05/24 14:41:20;;;;;;;;;;;17.00;96.10;;;;;;10575372;28;20378;-63
2021/05/24 14:46:22;;;;;;;;;;;17.30;96.70;;;;;;10575074;28;20364;-64
2021/05/24 14:51:27;;;;;;;;;;;17.60;96.30;;;;;;10572893;28;19923;-65
2021/05/24 14:56:30;;;;;;;;;;;18.10;96.40;;;;;;10574526;28;22329;-65
2021/05/24 15:01:32;;;;;;;;;;;18.30;94.70;;;;;;10574923;28;19928;-65
2021/05/24 15:06:33;;;;;;;;;;;18.30;91.20;;;;;;10574924;28;19924;-63
2021/05/24 15:11:34;;;;;;;;;;;18.40;92.30;;;;;;10575109;28;19928;-63
2021/05/24 15:16:36;;;;;;;;;;;18.60;93.70;;;;;;10574978;28;20011;-64
2021/05/24 15:21:38;;;;;;;;;;;19.20;93.80;;;;;;10575448;28;19927;-64
2021/05/24 15:26:40;;;;;;;;;;;19.10;90.80;;;;;;10574814;28;19924;-63
2021/05/24 15:31:43;;;;;;;;;;;19.10;86.20;;;;;;10574664;28;19973;-64
2021/05/24 15:36:44;;;;;;;;;;;18.50;86.80;;;;;;10574137;28;20011;-64
2021/05/24 15:41:45;;;;;;;;;;;18.20;86.70;;;;;;10573709;28;20031;-63
2021/05/24 15:46:47;;;;;;;;;;;17.40;91.00;;;;;;10573777;28;19924;-65
2021/05/24 15:51:48;;;;;;;;;;;16.60;94.00;;;;;;10573995;28;20015;-64
2021/05/24 15:56:49;;;;;;;;;;;16.00;96.40;;;;;;10574107;28;20364;-63
2021/05/24 16:01:51;;;;;;;;;;;15.60;99.60;;;;;;10573564;28;19975;-64
2021/05/24 16:06:52;;;;;;;;;;;14.90;99.90;;;;;;10572605;28;20392;-63
2021/05/24 16:11:53;;;;;;;;;;;14.00;99.90;;;;;;10573982;28;20014;-63
2021/05/24 16:16:55;;;;;;;;;;;12.60;99.90;;;;;;10572945;28;19946;-63
2021/05/24 16:21:57;;;;;;;;;;;14.40;99.90;;;;;;10577201;28;19934;-63
2021/05/24 16:26:59;;;;;;;;;;;11.50;99.90;;;;;;10580698;28;20292;-63
2021/05/24 16:32:01;;;;;;;;;;;11.30;99.90;;;;;;10581386;28;19936;-63
2021/05/24 16:37:02;;;;;;;;;;;11.20;99.90;;;;;;10580453;28;19946;-64
2021/05/24 16:42:04;;;;;;;;;;;11.30;99.90;;;;;;10580814;28;19939;-64
2021/05/24 16:47:06;;;;;;;;;;;11.40;99.90;;;;;;10581516;28;19949;-63
2021/05/24 16:52:07;;;;;;;;;;;11.40;99.90;;;;;;10581370;28;19928;-63
2021/05/24 16:57:08;;;;;;;;;;;11.40;99.90;;;;;;10581082;28;19928;-62
2021/05/24 17:02:11;;;;;;;;;;;11.50;99.90;;;;;;10580372;28;20375;-61
2021/05/24 17:07:12;;;;;;;;;;;11.40;99.90;;;;;;10580595;28;19928;-61
2021/05/24 17:12:13;;;;;;;;;;;11.50;99.90;;;;;;10580562;28;20014;-62
2021/05/24 17:17:15;;;;;;;;;;;11.50;99.90;;;;;;10579999;28;20359;-65
2021/05/24 17:22:16;;;;;;;;;;;11.50;99.90;;;;;;10580145;28;19928;-62
2021/05/24 17:27:19;;;;;;;;;;;11.50;99.90;;;;;;10579601;28;19928;-62
2021/05/24 17:32:21;;;;;;;;;;;11.50;99.90;;;;;;10578236;28;19949;-62
2021/05/24 17:37:22;;;;;;;;;;;11.60;99.90;;;;;;10579088;28;20385;-62
2021/05/24 17:42:23;;;;;;;;;;;11.60;99.90;;;;;;10578334;28;19930;-63
2021/05/24 17:47:25;;;;;;;;;;;11.50;99.90;;;;;;10578526;28;20007;-62
2021/05/24 17:52:34;;;;;;;;;;;11.50;99.90;;;;;;10578404;28;20027;-61
2021/05/24 17:57:35;;;;;;;;;;;12.00;99.90;;;;;;10578295;28;20265;-62
2021/05/24 18:02:37;;;;;;;;;;;11.60;99.90;;;;;;10578679;28;19927;-62
2021/05/24 18:07:38;;;;;;;;;;;11.70;99.90;;;;;;10577274;28;20323;-62
2021/05/24 18:12:40;;;;;;;;;;;11.90;99.90;;;;;;10578336;28;19934;-62
2021/05/24 18:17:42;;;;;;;;;;;11.70;99.90;;;;;;10577535;28;19980;-62
2021/05/24 18:22:44;;;;;;;;;;;11.80;99.90;;;;;;10577856;28;19930;-63
2021/05/24 18:27:45;;;;;;;;;;;11.80;99.90;;;;;;10577526;28;20380;-61
2021/05/24 18:32:48;;;;;;;;;;;11.70;99.90;;;;;;10577372;28;19930;-63
2021/05/24 18:37:54;;;;;;;;;;;11.60;99.90;;;;;;10576982;28;19924;-63
2021/05/24 18:42:55;;;;;;;;;;;11.60;99.90;;;;;;10575969;28;19923;-63
2021/05/24 18:47:57;;;;;;;;;;;11.40;99.90;;;;;;10577067;28;20419;-62
2021/05/24 18:52:58;;;;;;;;;;;11.30;99.90;;;;;;10576025;28;20330;-63
2021/05/24 18:57:59;;;;;;;;;;;11.10;99.90;;;;;;10576980;28;19948;-63
2021/05/24 19:03:03;;;;;;;;;;;11.10;99.90;;;;;;10575836;28;20011;-63
2021/05/24 19:08:04;;;;;;;;;;;11.00;99.90;;;;;;10575473;28;19923;-64
2021/05/24 19:13:05;;;;;;;;;;;11.00;99.90;;;;;;10574241;28;19928;-63
2021/05/24 19:18:09;;;;;;;;;;;10.90;99.90;;;;;;10574680;28;19952;-64
2021/05/24 19:23:11;;;;;;;;;;;11.30;99.90;;;;;;10574767;28;20028;-64
2021/05/24 19:28:13;;;;;;;;;;;10.80;99.90;;;;;;10575213;28;19963;-63
2021/05/24 19:33:17;;;;;;;;;;;10.70;99.90;;;;;;10574916;28;19923;-63
2021/05/24 19:38:18;;;;;;;;;;;10.70;99.90;;;;;;10574567;28;19927;-64
2021/05/24 19:43:19;;;;;;;;;;;10.70;99.90;;;;;;10574125;28;19931;-64
2021/05/24 20:25:46;;;;;;;;;;;10.30;99.90;;;;;;10582479;28;19924;-63
2021/05/24 20:30:47;;;;;;;;;;;10.40;99.90;;;;;;10582733;28;20014;-63
2021/05/24 20:35:49;;;;;;;;;;;10.30;99.90;;;;;;10583142;28;19923;-63
2021/05/24 20:40:50;;;;;;;;;;;10.30;99.90;;;;;;10583672;28;19924;-63
2021/05/24 20:45:51;;;;;;;;;;;10.30;99.90;;;;;;10582726;28;20030;-63
2021/05/24 20:50:53;;;;;;;;;;;10.30;99.90;;;;;;10582649;28;19927;-63
2021/05/24 20:55:54;;;;;;;;;;;10.30;99.90;;;;;;10582630;28;19927;-63
2021/05/24 21:00:57;;;;;;;;;;;10.20;99.90;;;;;;10582917;28;19924;-63
2021/05/24 21:05:59;;;;;;;;;;;10.20;99.90;;;;;;10582453;28;19928;-63
2021/05/24 21:11:00;;;;;;;;;;;10.10;99.90;;;;;;10582716;28;19931;-63
2021/05/24 21:16:02;;;;;;;;;;;10.10;99.90;;;;;;10582259;28;19932;-63
2021/05/24 21:21:04;;;;;;;;;;;10.10;99.90;;;;;;10582360;28;20387;-64
2021/05/24 21:26:05;;;;;;;;;;;10.10;99.90;;;;;;10579778;28;20380;-63
2021/05/24 21:31:06;;;;;;;;;;;10.00;99.90;;;;;;10579379;28;19927;-63
2021/05/24 21:36:08;;;;;;;;;;;10.00;99.90;;;;;;10579277;28;19934;-62
2021/05/24 21:41:09;;;;;;;;;;;10.00;99.90;;;;;;10577650;28;19924;-62
2021/05/24 21:46:10;;;;;;;;;;;10.00;99.90;;;;;;10577141;28;19924;-62
2021/05/24 21:51:13;;;;;;;;;;;10.00;99.90;;;;;;10579086;28;19936;-63
2021/05/24 21:56:15;;;;;;;;;;;10.20;99.90;;;;;;10578122;28;19928;-63
2021/05/24 22:01:17;;;;;;;;;;;11.00;99.90;;;;;;10577456;28;20809;-63
2021/05/24 22:06:19;;;;;;;;;;;7.70;99.90;;;;;;10577437;28;20481;-63
2021/05/24 22:11:20;;;;;;;;;;;9.80;99.90;;;;;;10577326;28;20023;-64
2021/05/24 22:16:21;;;;;;;;;;;9.70;99.90;;;;;;10576839;28;20000;-63
2021/05/24 22:21:23;;;;;;;;;;;9.70;99.90;;;;;;10575584;28;19931;-63
2021/05/24 22:26:24;;;;;;;;;;;9.70;99.90;;;;;;10573158;28;20002;-63
2021/05/24 22:31:25;;;;;;;;;;;9.50;99.90;;;;;;10572449;28;20005;-63
2021/05/24 22:36:28;;;;;;;;;;;9.40;99.90;;;;;;10574589;28;19928;-63
2021/05/24 22:41:30;;;;;;;;;;;9.30;99.90;;;;;;10575186;28;19930;-63
2021/05/24 22:46:31;;;;;;;;;;;9.30;99.90;;;;;;10575905;28;20019;-63
2021/05/24 22:51:33;;;;;;;;;;;9.20;99.90;;;;;;10575612;28;19927;-64
2021/05/24 22:56:34;;;;;;;;;;;9.20;99.90;;;;;;10574981;28;19953;-63
2021/05/24 23:01:35;;;;;;;;;;;9.20;99.90;;;;;;10575599;28;20008;-64
2021/05/24 23:06:39;;;;;;;;;;;9.10;99.90;;;;;;10575392;28;19928;-63
2021/05/24 23:11:40;;;;;;;;;;;9.10;99.90;;;;;;10575009;28;19934;-65
2021/05/24 23:16:41;;;;;;;;;;;9.10;99.90;;;;;;10575283;28;19927;-63
2021/05/24 23:21:43;;;;;;;;;;;9.10;99.90;;;;;;10575502;28;20018;-63
2021/05/24 23:26:44;;;;;;;;;;;9.10;99.90;;;;;;10576611;28;19923;-63
2021/05/24 23:31:45;;;;;;;;;;;9.10;99.90;;;;;;10576468;28;19928;-63
2021/05/24 23:36:47;;;;;;;;;;;8.90;99.90;;;;;;10557635;28;19924;-63
2021/05/24 23:41:48;;;;;;;;;;;8.90;99.90;;;;;;10575651;28;19930;-62
2021/05/24 23:46:49;;;;;;;;;;;8.80;99.90;;;;;;10574192;28;20376;-64
2021/05/24 23:51:51;;;;;;;;;;;8.80;99.90;;;;;;10573677;28;19927;-64
2021/05/24 23:56:52;;;;;;;;;;;8.70;99.90;;;;;;10573141;28;19924;-64
